METAR Data
IDs: Format: Raw Decoded Include TAF

Data at: 0217 UTC 24 Jun 2021

VILK 240200Z 10003KT 3000 BR SCT018 FEW030CB OVC090 28/26 Q1002 NOSIG
VILK 240130Z 10003KT 3000 BR SCT018 FEW030CB OVC090 28/26 Q1002 NOSIG
VILK 240100Z 09004KT 3000 BR SCT018 FEW030CB OVC090 27/26 Q1001 NOSIG
VILK 240030Z 09004KT 3000 BR SCT018 FEW030CB OVC090 27/26 Q1001 NOSIG
VILK 240000Z 09004KT 3000 BR FEW010 BKN018 OVC090 27/26 Q1001 NOSIG
VILK 232330Z 07003KT 3000 BR FEW010 SCT020 BKN100 27/26 Q1001 NOSIG
VILK 232300Z 09004KT 3000 BR FEW010 SCT020 BKN100 27/26 Q1001 NOSIG
VILK 232230Z 07003KT 3000 BR FEW010 SCT020 BKN100 28/26 Q1001 NOSIG
VILK 232200Z 07003KT 3000 BR FEW010 SCT020 BKN100 28/26 Q1001 NOSIG
VILK 232130Z 07003KT 3000 BR FEW010 SCT020 BKN100 28/26 Q1002 NOSIG
VILK 232100Z 09003KT 3000 BR FEW010 SCT020 BKN100 28/26 Q1002 NOSIG
VILK 232030Z 08004KT 3000 BR SCT020 BKN100 28/26 Q1002 NOSIG
VILK 232000Z 10004KT 3000 BR SCT020 BKN100 27/26 Q1002 NOSIG
VILK 231930Z 10004KT 3000 BR SCT020 BKN100 28/26 Q1003 NOSIG
VILK 231900Z 09004KT 3000 BR SCT020 BKN100 28/25 Q1003 NOSIG
VILK 231830Z 10005KT 3000 BR SCT020 BKN100 28/25 Q1003 NOSIG
VILK 231800Z 09005KT 3000 BR SCT020 BKN100 28/25 Q1003 NOSIG
VILK 231730Z 07005KT 3000 BR SCT020 BKN100 28/26 Q1003 NOSIG
VILK 231700Z 07005KT 3000 BR SCT020 BKN100 28/26 Q1003 NOSIG
VILK 231630Z 09006KT 3000 BR SCT020 BKN100 28/26 Q1003 NOSIG
VILK 231600Z 09007KT 3000 BR SCT020 BKN100 28/26 Q1002 NOSIG
VILK 231530Z 08005KT 3000 BR SCT020 BKN100 29/26 Q1002 NOSIG
VILK 231500Z 09005KT 3000 BR SCT020 BKN100 29/27 Q1001 NOSIG
VILK 231430Z 10006KT 3000 BR SCT020 BKN100 29/27 Q1001 NOSIG
VILK 231400Z 05007KT 3000 HZ SCT020 BKN100 30/28 Q1000 NOSIG
VILK 231330Z 00000KT 3000 HZ SCT020 FEW030CB BKN100 31/28 Q1000 NOSIG
VILK 231300Z 01005KT 3000 HZ SCT020 FEW030CB BKN100 32/29 Q1000 NOSIG
VILK 231230Z 36007KT 4000 HZ SCT020 FEW030CB BKN100 32/29 Q1000 NOSIG
VILK 231200Z 03005KT 4000 HZ SCT020 FEW030CB BKN100 32/29 Q1000 NOSIG
VILK 231130Z 02004KT 5000 HZ SCT020 SCT025 FEW030CB BKN100 32/29 Q1000 TEMPO 1500 TSRA
VILK 231100Z 04003KT 5000 HZ SCT020 SCT025 FEW030CB BKN100 31/28 Q1000 NOSIG
VILK 231030Z 03005KT 5000 HZ SCT020 SCT025 FEW030CB 31/28 Q1000 NOSIG
VILK 231000Z 03007KT 5000 HZ SCT020 SCT025 FEW030CB 31/28 Q1001 NOSIG
VILK 230930Z 09007KT 5000 HZ SCT020 SCT025 FEW030CB 33/29 Q1001 NOSIG
VILK 230900Z 14008KT 5000 HZ SCT020 SCT025 FEW030CB 33/28 Q1001 NOSIG
VILK 230830Z 09005KT 5000 HZ SCT020 SCT025 FEW030CB 33/29 Q1001 TEMPO 1500 TSRA
VILK 230800Z 12003KT 5000 HZ SCT020 SCT025 FEW030CB 34/29 Q1002 NOSIG
VILK 230730Z 12006KT 5000 HZ SCT020 SCT025 BKN100 33/29 Q1002 NOSIG
VILK 230700Z 11007KT 5000 HZ SCT020 SCT025 BKN100 33/30 Q1002 NOSIG
VILK 230630Z 13006KT 5000 HZ SCT020 SCT025 BKN100 33/29 Q1002 NOSIG
VILK 230600Z 11006KT 5000 HZ SCT020 SCT025 BKN100 33/29 Q1003 NOSIG
VILK 230530Z 11007KT 4500 BR SCT020 BKN100 32/29 Q1003 BECMG 5000 HZ
VILK 230500Z 11006KT 4000 BR SCT020 SCT025 BKN100 32/29 Q1003 NOSIG
VILK 230430Z 11006KT 4000 BR SCT020 SCT025 FEW030CB BKN100 31/29 Q1003 NOSIG
VILK 230400Z 16006KT 4000 BR SCT020 SCT025 FEW030CB BKN100 30/27 Q1003 NOSIG
VILK 230330Z 16006KT 4000 BR SCT020 SCT025 FEW030CB BKN100 29/27 Q1003 NOSIG
VILK 230300Z 16005KT 3000 BR SCT020 SCT025 FEW030CB BKN100 30/27 Q1003 NOSIG
VILK 230230Z 15008KT 2500 BR SCT020 SCT025 BKN100 30/28 Q1003 BECMG 3000 BR
VILK 230200Z 15006KT 2000 BR SCT020 BKN100 30/27 Q1002 NOSIG
VILK 230130Z 15006KT 2000 BR SCT020 BKN100 29/27 Q1002 NOSIG
VILK 230100Z 13004KT 2000 BR SCT020 BKN100 29/27 Q1002 NOSIG
VILK 230030Z 15004KT 2000 BR SCT020 BKN100 29/27 Q1001 NOSIG
VILK 230000Z 00000KT 3000 BR SCT020 BKN100 29/27 Q1001 NOSIG
VILK 222330Z 00000KT 3000 BR SCT020 BKN100 29/27 Q1001 NOSIG
VILK 222300Z 00000KT 3000 BR SCT020 BKN100 29/27 Q1001 NOSIG
VILK 222230Z 00000KT 3000 BR SCT020 BKN100 29/27 Q1001 NOSIG
VILK 222200Z 00000KT 3000 BR SCT020 BKN100 29/27 Q1000 NOSIG
VILK 222130Z 00000KT 3000 BR SCT020 BKN100 30/27 Q1000 NOSIG
VILK 222100Z 00000KT 3000 BR SCT020 BKN100 30/27 Q1000 NOSIG
VILK 222030Z 00000KT 3000 BR SCT020 BKN100 30/27 Q1000 NOSIG
VILK 222000Z 00000KT 3000 BR SCT020 BKN100 30/27 Q1001 NOSIG
VILK 221930Z 00000KT 3000 BR SCT020 BKN100 30/27 Q1001 NOSIG
VILK 221900Z 00000KT 3000 BR SCT020 BKN100 30/27 Q1001 NOSIG
VILK 221830Z 00000KT 3000 BR SCT020 BKN100 30/28 Q1001 NOSIG
VILK 221800Z 00000KT 3000 BR SCT020 BKN100 30/28 Q1002 NOSIG
VILK 221730Z 00000KT 3000 BR SCT020 BKN100 30/28 Q1002 NOSIG
VILK 221700Z VRB02KT 4000 BR SCT020 BKN100 31/28 Q1002 BECMG 3000 BR
VILK 221630Z 00000KT 4000 BR SCT020 BKN100 31/29 Q1002 NOSIG
VILK 221600Z 00000KT 4000 BR SCT020 BKN100 31/29 Q1002 NOSIG
VILK 221530Z 00000KT 4000 BR SCT020 BKN100 31/29 Q1001 NOSIG
VILK 221500Z 00000KT 4000 BR SCT020 BKN100 31/28 Q1001 NOSIG
VILK 221430Z VRB02KT 5000 HZ SCT020 BKN100 32/28 Q1000 NOSIG
VILK 221400Z 18004KT 5000 HZ SCT020 BKN100 32/28 Q1000 NOSIG
VILK 221330Z VRB02KT 5000 HZ SCT020 BKN100 33/29 Q0999 NOSIG
VILK 221300Z 18003KT 5000 HZ SCT020 BKN100 34/29 Q0999 NOSIG
VILK 221230Z 18003KT 5000 HZ SCT020 SCT025 BKN100 34/29 Q0999 NOSIG
VILK 221200Z 00000KT 5000 HZ SCT020 SCT025 BKN100 35/29 Q0999 NOSIG
VILK 221130Z VRB02KT 5000 HZ SCT020 SCT025 BKN100 35/29 Q0999 NOSIG
VILK 221100Z VRB02KT 5000 HZ SCT020 SCT025 BKN100 34/29 Q0999 NOSIG
VILK 221030Z 13004KT 5000 HZ SCT020 SCT025 BKN100 35/29 Q0999 NOSIG
VILK 221000Z 31004KT 5000 HZ SCT020 SCT025CB BKN100 36/29 Q0999 NOSIG
VILK 220930Z 32005KT 5000 HZ SCT018 SCT025 FEW030CB BKN100 35/28 Q1000 NOSIG
VILK 220900Z VRB02KT 5000 HZ SCT018 SCT025 FEW030CB BKN100 35/28 Q1001 NOSIG
VILK 220830Z 32005KT 5000 HZ SCT018 SCT025 FEW030CB BKN100 34/29 Q1001 TEMPO 1500 TSRA
VILK 220800Z VRB02KT 5000 HZ SCT018 SCT025 BKN100 34/28 Q1001 NOSIG
VILK 220730Z 12003KT 5000 HZ SCT018 SCT025 BKN100 34/29 Q1001 NOSIG
VILK 220700Z 12003KT 5000 HZ SCT018 SCT025 BKN100 34/29 Q1002 NOSIG
VILK 220630Z 12003KT 5000 HZ SCT018 SCT025 BKN100 33/29 Q1002 NOSIG
VILK 220600Z VRB02KT 5000 HZ SCT018 SCT025 BKN100 34/30 Q1002 NOSIG
VILK 220530Z 12003KT 5000 HZ SCT018 SCT025 BKN100 33/30 Q1002 NOSIG
VILK 220500Z 12003KT 4500 BR SCT018 SCT025 33/29 Q1002 NOSIG
VILK 220430Z 12003KT 4000 BR SCT018 SCT025 32/29 Q1002 NOSIG
VILK 220400Z 11003KT 4000 BR SCT018 SCT025 32/29 Q1002 NOSIG
VILK 220330Z 11004KT 4000 BR SCT018 SCT025 BKN100 31/29 Q1002 NOSIG
VILK 220300Z 10004KT 3000 BR SCT020 BKN100 31/28 Q1002 NOSIG
VILK 220230Z 11005KT 3000 BR SCT020 BKN100 30/28 Q1002 NOSIG
VILK 220200Z 00000KT 3000 BR SCT020 BKN100 30/27 Q1002 NOSIG
VILK 220130Z 00000KT 3000 BR SCT020 BKN100 30/27 Q1001 NOSIG
VILK 220100Z 00000KT 3000 BR SCT020 BKN100 29/27 Q1001 NOSIG
VILK 220030Z 10003KT 3000 BR SCT020 BKN100 28/26 Q1001 NOSIG
VILK 220000Z 00000KT 3000 BR SCT020 BKN100 28/26 Q1000 NOSIG
VILK 212330Z 00000KT 3000 BR SCT020 BKN100 28/26 Q1000 NOSIG
VILK 212230Z 00000KT 3000 BR SCT020 BKN100 28/27 Q1000 NOSIG
VILK 212200Z 00000KT 3000 BR SCT020 FEW030CB BKN100 28/26 Q1000 NOSIG
VILK 212130Z 00000KT 3000 BR SCT020 FEW030CB BKN100 28/26 Q1000 NOSIG
VILK 212100Z 00000KT 3000 BR SCT020 FEW030CB BKN100 28/26 Q1000 NOSIG
VILK 212030Z 00000KT 3000 BR SCT020 FEW030CB BKN100 28/26 Q1000 NOSIG
VILK 212000Z 00000KT 3000 BR SCT020 BKN100 29/26 Q1000 NOSIG
VILK 211930Z 00000KT 3000 BR SCT020 BKN100 29/26 Q1001 NOSIG
VILK 211900Z 00000KT 3000 BR SCT020 BKN100 29/26 Q1001 NOSIG
VILK 211830Z 00000KT 3000 BR SCT020 BKN100 29/27 Q1001 NOSIG
VILK 211800Z 00000KT 3000 BR SCT020 BKN100 29/27 Q1001 NOSIG
VILK 211730Z 00000KT 3000 BR SCT020 BKN100 30/27 Q1001 NOSIG
VILK 211700Z 00000KT 3000 BR SCT020 BKN100 30/27 Q1001 NOSIG
VILK 211630Z 00000KT 4000 BR SCT020 BKN100 30/28 Q1001 BECMG 3000 BR
VILK 211600Z 00000KT 4000 BR SCT020 BKN100 30/28 Q1001 NOSIG
VILK 211530Z 00000KT 4000 BR SCT020 BKN100 30/28 Q1000 NOSIG
VILK 211500Z 00000KT 4000 BR SCT020 BKN100 31/28 Q1000 NOSIG
VILK 211430Z 00000KT 4000 BR SCT018 FEW030CB BKN200 31/29 Q1000 NOSIG
VILK 211400Z 00000KT 4000 HZ SCT018 FEW030CB BKN200 32/29 Q1000 NOSIG
VILK 211330Z 00000KT 4500 HZ SCT018 FEW030CB BKN200 32/29 Q0999 NOSIG
VILK 211300Z 00000KT 5000 HZ SCT018 SCT025 33/29 Q0999 NOSIG
VILK 211230Z 32004KT 5000 HZ SCT018 SCT025 34/29 Q0999 NOSIG
VILK 211200Z VRB02KT 5000 HZ SCT018 SCT025 34/29 Q0999 NOSIG
VILK 211130Z VRB02KT 5000 HZ SCT018 SCT025 35/29 Q0999 NOSIG
VILK 211100Z VRB02KT 5000 HZ SCT018 SCT025 35/29 Q0999 NOSIG
VILK 211030Z VRB02KT 5000 HZ SCT018 SCT025 33/29 Q1000 NOSIG
VILK 211000Z 07003KT 4000 HZ SCT018 SCT025 BKN090 33/29 Q1000 BECMG 5000 HZ
VILK 210930Z 05002KT 4000 HZ SCT018 SCT025 BKN090 33/29 Q1000 NOSIG
VILK 210830Z VRB02KT 4000 BR SCT018 SCT025 OVC090 32/29 Q1001 NOSIG
VILK 210800Z 05003KT 4000 BR SCT018 SCT025 OVC090 33/29 Q1001 NOSIG
VILK 210730Z 07004KT 4000 BR SCT018 SCT025 OVC090 32/29 Q1001 NOSIG
VILK 210700Z 07005KT 4000 BR SCT018 SCT025 OVC090 32/28 Q1002 NOSIG
VILK 210630Z 05005KT 3000 BR SCT010 SCT018 OVC090 32/28 Q1002 BECMG 5000 HZ
VILK 210600Z 05004KT 3000 BR SCT010 SCT018 OVC090 31/27 Q1002 NOSIG
VILK 210530Z 05005KT 3000 BR SCT010 SCT018 OVC090 30/28 Q1002 NOSIG
VILK 210500Z 05004KT 3000 BR SCT010 SCT018 OVC090 29/27 Q1002 NOSIG
VILK 210430Z VRB02KT 3000 BR SCT010 SCT018 OVC090 30/27 Q1002 NOSIG
VILK 210400Z 00000KT 3000 BR SCT010 SCT018 OVC090 30/27 Q1002 NOSIG
VILK 210330Z 00000KT 3000 BR FEW010 SCT018 BKN100 30/27 Q1002 NOSIG
VILK 210300Z VRB02KT 3000 BR FEW010 SCT018 BKN100 29/26 Q1002 NOSIG
VILK 210230Z 00000KT 2500 BR FEW010 SCT018 BKN100 29/26 Q1002 BECMG 3000 HZ
VILK 210200Z 00000KT 2500 BR FEW010 SCT018 BKN100 27/25 Q1002 NOSIG
VILK 210130Z 07003KT 2500 BR FEW010 SCT018 BKN100 27/25 Q1001 NOSIG
VILK 210100Z 07003KT 2500 BR FEW010 SCT018 BKN100 27/25 Q1001 NOSIG
VILK 210030Z 00000KT 2500 BR SCT010 SCT018 BKN100 26/25 Q1001 NOSIG
VILK 210000Z 00000KT 2500 BR SCT010 SCT018 BKN100 26/26 Q1001 NOSIG
VILK 202330Z VRB02KT 2500 BR SCT010 SCT018 BKN100 26/25 Q1001 NOSIG
VILK 202300Z VRB02KT 2500 BR SCT010 SCT018 BKN100 26/25 Q1001 NOSIG
VILK 202230Z 10003KT 2500 BR SCT010 SCT015 BKN100 26/25 Q1001 NOSIG
VILK 202200Z 10003KT 2500 BR SCT010 SCT015 BKN100 26/25 Q1001 NOSIG
VILK 202130Z 10003KT 2500 BR SCT010 SCT015 BKN100 26/25 Q1001 NOSIG
VILK 202100Z 10003KT 2500 BR SCT015 SCT100 26/25 Q1001 NOSIG
VILK 202030Z 10003KT 2500 BR SCT020 SCT100 26/25 Q1001 NOSIG
VILK 202000Z 10003KT 2500 BR SCT020 SCT100 26/25 Q1001 NOSIG
VILK 201930Z 11003KT 2500 BR SCT020 BKN100 26/25 Q1001 NOSIG
VILK 201900Z 11003KT 2500 BR SCT020 BKN100 27/25 Q1002 NOSIG
VILK 201830Z 11003KT 2500 BR SCT020 BKN100 27/25 Q1002 NOSIG
VILK 201800Z 09003KT 2500 BR SCT020 BKN100 27/25 Q1002 NOSIG
VILK 201730Z 11003KT 2500 BR SCT020 BKN100 27/25 Q1002 NOSIG
VILK 201700Z 11003KT 2500 BR SCT020 FEW030CB BKN100 27/25 Q1002 NOSIG
VILK 201630Z 10003KT 2500 BR SCT020 FEW030CB BKN100 27/25 Q1002 NOSIG
VILK 201600Z 09004KT 2500 BR SCT020 FEW030CB BKN100 27/25 Q1002 NOSIG
VILK 201530Z 09003KT 2500 BR SCT020 FEW030CB BKN100 27/25 Q1001 NOSIG
VILK 201500Z 10004KT 2500 BR SCT020 FEW030CB BKN100 28/25 Q1001 NOSIG
VILK 201430Z 09006KT 2500 BR SCT020 FEW030CB BKN100 28/26 Q1000 NOSIG
VILK 201400Z VRB02KT 2500 BR SCT020 FEW030CB BKN100 28/26 Q1000 NOSIG
VILK 201330Z VRB02KT 2500 BR SCT020 FEW030CB BKN100 28/26 Q1000 NOSIG
VILK 201300Z VRB02KT 2500 BR SCT020 SCT025 FEW030CB BKN100 29/27 Q0999 NOSIG
VILK 201230Z VRB02KT 2500 BR SCT020 SCT025 FEW030CB BKN100 29/27 Q0999 NOSIG
VILK 201200Z VRB02KT 2500 BR SCT020 SCT025 FEW030CB BKN100 30/27 Q0999 NOSIG
VILK 201130Z 09003KT 2500 BR SCT020 SCT025 FEW030CB BKN100 30/27 Q0999 NOSIG
VILK 201100Z 09004KT 2500 BR SCT020 SCT025 FEW030CB BKN100 30/28 Q0999 TEMPO 1500 TSRA
VILK 201030Z 07004KT 2500 BR SCT020 SCT025 FEW030CB BKN100 31/28 Q0999 NOSIG
VILK 201000Z 09004KT 2500 BR SCT020 SCT025 FEW030CB BKN100 31/28 Q0999 NOSIG
VILK 200930Z 08004KT 2500 BR SCT020 SCT025 FEW030CB BKN100 31/28 Q0999 NOSIG
VILK 200900Z 07004KT 2500 BR SCT020 SCT025 FEW030CB BKN100 31/28 Q1000 NOSIG
VILK 200830Z 10004KT 2500 BR SCT018 SCT025 FEW030CB BKN100 30/28 Q1000 NOSIG
VILK 200800Z 08005KT 2000 BR SCT010 SCT018 OVC090 30/27 Q1000 NOSIG
VILK 200730Z 06005KT 2000 BR SCT010 SCT018 OVC090 30/27 Q1001 BECMG 3000 BR
VILK 200700Z 06005KT 2000 BR SCT010 SCT018 OVC090 29/26 Q1001 NOSIG
VILK 200630Z 07006KT 2000 BR SCT010 SCT018 OVC090 28/26 Q1001 NOSIG
VILK 200600Z 07004KT 2000 -RA SCT010 SCT018 OVC090 28/26 Q1002 NOSIG
VILK 200530Z 05006KT 3000 BR FEW010 SCT018 BKN090 30/27 Q1002 NOSIG
VILK 200500Z VRB02KT 3000 BR FEW010 SCT018 FEW030CB BKN090 30/27 Q1001 NOSIG
VILK 200430Z 09003KT 3000 BR SCT010 SCT018 FEW030CB OVC090 29/27 Q1001 NOSIG
VILK 200400Z 14003KT 3000 BR SCT010 SCT018 FEW030CB OVC090 29/27 Q1001 NOSIG
VILK 200330Z 09003KT 3000 BR SCT010 SCT018 FEW030CB OVC090 29/26 Q1001 NOSIG
VILK 200300Z 07004KT 3000 BR SCT010 SCT018 FEW030CB OVC090 28/25 Q1001 NOSIG
VILK 200230Z 08003KT 3000 BR SCT010 SCT018 FEW030CB OVC090 27/25 Q1001 TEMPO 1500 TSRA
VILK 200200Z 09004KT 3000 BR FEW010 SCT018 FEW030CB OVC090 27/25 Q1000 NOSIG
VILK 200130Z 00000KT 3000 BR SCT020 BKN100 27/25 26/25 Q1000 NOSIG
VILK 200100Z 00000KT 3000 BR SCT020 BKN100 26/25 Q1000 NOSIG
VILK 200030Z 04003KT 3000 BR SCT020 BKN100 26/25 26/25 Q0999 NOSIG
VILK 200000Z 00000KT 3000 BR FEW010 SCT020 OVC090 26/25 Q0999 NOSIG
VILK 192330Z 00000KT 3000 BR FEW010 SCT020 OVC090 26/25 Q0999 NOSIG
VILK 192300Z 00000KT 3000 BR FEW010 SCT020 OVC090 26/25 Q0999 NOSIG
VILK 192230Z 00000KT 3000 BR FEW010 SCT020 OVC090 26/25 Q0999 NOSIG
VILK 192130Z 00000KT 3000 BR SCT010 SCT020 OVC090 26/24 Q0999 NOSIG
VILK 192100Z 00000KT 3000 BR FEW010 SCT020 BKN100 26/24 Q0999 NOSIG
VILK 192030Z 00000KT 3000 BR SCT020 BKN100 26/24 Q0999 NOSIG
VILK 192000Z 00000KT 3000 BR SCT020 SCT025 BKN100 26/24 Q0999 NOSIG
VILK 191930Z 00000KT 3000 BR SCT020 SCT025 BKN100 26/24 Q0999 NOSIG
VILK 191900Z 00000KT 3000 BR SCT020 SCT025 BKN100 26/24 Q1000 NOSIG
VILK 191830Z 00000KT 3000 BR SCT020 SCT025 BKN100 26/24 Q1000 NOSIG
VILK 191800Z VRB02KT 3000 BR SCT020 SCT025 BKN100 26/24 Q1000 NOSIG
VILK 191730Z 00000KT 3000 BR SCT020 BKN100 26/24 Q1000 NOSIG
VILK 191700Z VRB02KT 3000 BR SCT020 BKN100 26/24 Q1000 NOSIG
VILK 191630Z VRB02KT 3000 BR SCT020 BKN100 26/24 Q1000 NOSIG
VILK 191600Z VRB02KT 3000 BR SCT020 BKN100 26/24 Q1000 NOSIG
VILK 191530Z VRB02KT 3000 BR SCT020 BKN100 26/24 Q1000 NOSIG
VILK 191500Z VRB02KT 3000 BR SCT020 BKN100 26/25 Q1000 NOSIG
VILK 191430Z VRB02KT 3000 BR SCT020 BKN100 26/24 Q1000 NOSIG
VILK 191400Z 11003KT 3000 BR SCT020 BKN100 27/25 Q0999 NOSIG
VILK 191330Z 11003KT 3000 BR SCT020 BKN100 27/25 Q0999 NOSIG
VILK 191300Z 11003KT 3000 BR SCT020 BKN100 27/25 Q0998 NOSIG
VILK 191230Z 12005KT 3000 BR FEW010 SCT020 BKN100 28/25 Q0998 NOSIG
VILK 191200Z 11004KT 3000 BR FEW010 SCT020 BKN100 28/25 Q0998 NOSIG
VILK 191130Z VRB02KT 3000 BR SCT010 SCT018 OVC090 27/25 Q0998 NOSIG
VILK 191100Z VRB02KT 3000 -DZ SCT010 SCT018 OVC090 27/25 Q0998 NOSIG
VILK 191030Z 13003KT 3000 -DZ SCT010 SCT018 FEW030CB OVC090 27/25 Q0998 NOSIG
VILK 191000Z 15003KT 3000 -DZ SCT010 SCT018 FEW030CB OVC090 27/25 Q0998 NOSIG
VILK 190930Z 13005KT 3000 -DZ SCT010 SCT018 FEW030CB OVC090 27/25 Q0999 NOSIG
VILK 190900Z 07007KT 3000 -DZ SCT010 SCT018 FEW030CB OVC090 27/25 Q0999 NOSIG
VILK 190830Z 11006KT 3000 BR FEW010 SCT018 FEW030CB OVC090 28/26 Q0999 NOSIG
VILK 190800Z 11006KT 3000 -DZ FEW010 SCT015 FEW030CB OVC090 28/26 Q0999 NOSIG
VILK 190730Z 11008KT 3000 -DZ FEW010 SCT015 FEW030CB OVC090 28/25 Q0999 NOSIG
VILK 190700Z 10006KT 3000 -DZ FEW010 SCT015 FEW030CB OVC090 28/25 Q1000 NOSIG
VILK 190630Z 10006KT 3000 -DZ FEW010 SCT015 FEW030CB OVC090 27/25 Q1000 NOSIG
VILK 190600Z 09010KT 3000 -DZ FEW010 SCT015 FEW030CB OVC090 27/25 Q1000 NOSIG
VILK 190530Z 07004KT 3000 -DZ FEW010 SCT015 FEW030CB OVC090 26/25 Q1000 NOSIG
VILK 190500Z 08006KT 3000 -DZ SCT010 SCT015 FEW030CB OVC090 26/25 Q1000 NOSIG
VILK 190430Z 09006KT 3000 -DZ SCT010 SCT015 FEW030CB OVC090 27/24 Q1000 NOSIG
VILK 190400Z 11008KT 3000 BR SCT010 SCT015 FEW030CB OVC090 27/25 Q1000 NOSIG
VILK 190330Z 09008KT 2500 BR SCT010 SCT015 FEW030CB OVC090 27/24 Q1000 BECMG 3000 BR
VILK 190300Z 09005KT 2500 BR SCT010 SCT015 FEW030CB OVC090 26/24 Q1000 NOSIG
VILK 190230Z 11007KT 2500 BR SCT010 SCT015 FEW030CB OVC090 26/24 Q1000 TEMPO 1500 TSRA